Impacts TAF Board
For situational awareness. Not to be used for flight planning purposes.
IDs:

KMOB - Mobile Rgnl, AL, US

Issued at 1736 UTC 07 Dec 2021
Updated at 1905 UTC 07 Dec 2021
Potential Impact None Slight Moderate High
Time1856Z 07/20Z 07/21Z 07/22Z 07/23Z 08/00Z 08/01Z 08/02Z 08/03Z 08/04Z 08/05Z 08/06Z 08/07Z 08/08Z>>
Type OBS PRVL PRVL PRVL PRVL PRVL PRVL PRVL PRVL PRVL PRVL PRVL PRVL PRVL
VIS 4 5 6 6 6 6 6 6 6 4 4 4 4 4
CIG 8 7 9 9 9 9 9 9 9 9 9 9 9 9
Cover OVC OVC OVC OVC OVC OVC OVC OVC OVC OVC OVC OVC OVC OVC
FltCat IFR IFR IFR IFR IFR IFR IFR IFR IFR IFR IFR IFR IFR IFR
WX BR BR BR BR BR BR BR BR BR -SHRA BR -SHRA BR -SHRA BR -SHRA BR -SHRA BR
WDir 50 50 60 60 60 60 60 60 60 VRB VRB VRB VRB VRB
WSpd 5 6 4 4 4 4 4 4 4 0 0 0 0 0
WGst -- -- -- -- -- -- -- -- -- -- -- -- -- --
WSHgt -- -- -- -- -- -- -- -- -- -- -- -- -- --
WSDir -- -- -- -- -- -- -- -- -- -- -- -- -- --
WSSpd -- -- -- -- -- -- -- -- -- -- -- -- -- --
Raw TAF
KMOB 071736Z 0718/0818 05006KT 5SM BR OVC007
  FM072100 06004KT 6SM BR OVC009
  FM080400 00000KT 4SM -SHRA BR OVC009
  FM080900 00000KT 1SM SHRA BR OVC008
  FM081200 VRB03KT 1 1/2SM BR OVC008
  PROB30 0812/0815 3/4SM SHRA OVC001
  FM081500 35006KT 3SM BR OVC003


Raw METAR
KMOB 071856Z 05005KT 4SM BR OVC008 13/11 A3006 RMK AO2 SLP176 T01280111 $
KMOB 071756Z 05006KT 4SM BR OVC007 12/11 A3009 RMK AO2 SLP187 60000 T01220106 10122 20100 58014 $
KMOB 071656Z COR 03007KT 3SM BR OVC007 12/11 A3013 RMK AO2 SLP200 T01170106 $

METAR Board
Radar Display
Forecast Discussion
For situational awareness. Not to be used for flight planning purposes.